Weather History for KFTN - March, 2014

Change the Weather History Date:

Saturday, March 15, 2014

  Actual Average (KCOT) Record (KCOT)
Temperature  
Mean Temperature 72 °F -  
Max Temperature 82 °F 73 °F 97 °F (2008)
Min Temperature 62 °F 52 °F 39 °F (1999)
Cooling Degree Days 7    
Growing Degree Days 22 (Base 50)    
Moisture  
Dew Point 57 °F    
Average Humidity 69    
Maximum Humidity 100    
Minimum Humidity 30    
Precipitation  
Precipitation 0.00 in - - ()
Sea Level Pressure  
Sea Level Pressure 29.83 in    
Wind  
Wind Speed 6 mph (East)    
Max Wind Speed 10 mph    
Max Gust Speed -    
Visibility 10 miles    
Events      
Averages and records for this station are not official NWS values.
T = Trace of Precipitation, MM = Missing Value Source: NWS Daily Summary

Daily Weather History Graph

Daily Weather History Graph

Search for Another Location

Airport or City:

Trip Planner

Search our weather history database for the weather conditions in past years. The results will help you decide how hot, cold, wet, or windy it might be!

Date:

Astronomy

Mar. 15, 2014 Rise Set
Actual Time 7:49 AM CDT 7:48 PM CDT
Civil Twilight 7:26 AM CDT 8:12 PM CDT
Nautical Twilight 6:58 AM CDT 8:39 PM CDT
Astronomical Twilight 6:31 AM CDT 9:06 PM CDT
Moon 7:10 PM CDT (3/15) 6:59 AM CDT (3/15)
Length of Visible Light 12h 45m
Length of Day
11h 59m
Waxing Gibbous, 99% of the Moon is Illuminated
Mar 15
Waxing Gibbous
Mar 16
Full
Mar 23
Last Quarter
Mar 30
New
Apr 7
First Quarter

Hourly Weather History & Observations

Time (CDT) Temp. Heat Index Dew Point Humidity Pressure Visibility Wind Dir Wind Speed Gust Speed Precip Events Conditions
12:15 AM 66.2 °F - 62.6 °F 88% 29.94 in 10.0 mi ESE 8.1 mph - N/A   Clear
12:35 AM 64.4 °F - 62.6 °F 94% 29.94 in 10.0 mi ESE 6.9 mph - N/A   Clear
12:55 AM 64.4 °F - 62.6 °F 94% 29.94 in 10.0 mi ESE 8.1 mph - N/A   Clear
1:15 AM 64.4 °F - 62.6 °F 94% 29.93 in 10.0 mi ESE 6.9 mph - N/A   Clear
1:35 AM 64.4 °F - 62.6 °F 94% 29.92 in 10.0 mi ESE 8.1 mph - N/A   Clear
1:55 AM 64.4 °F - 62.6 °F 94% 29.92 in 10.0 mi ESE 5.8 mph - N/A   Clear
2:15 AM 64.4 °F - 62.6 °F 94% 29.92 in 10.0 mi SE 6.9 mph - N/A   Clear
2:35 AM 62.6 °F - 62.6 °F 100% 29.92 in 10.0 mi SE 8.1 mph - N/A   Clear
2:55 AM 62.6 °F - 62.6 °F 100% 29.91 in 10.0 mi ESE 8.1 mph - N/A   Clear
3:15 AM 62.6 °F - 62.6 °F 100% 29.91 in 10.0 mi ESE 5.8 mph - N/A   Clear
3:35 AM 62.6 °F - 60.8 °F 94% 29.91 in 10.0 mi East 4.6 mph - N/A   Clear
3:55 AM 62.6 °F - 60.8 °F 94% 29.90 in 10.0 mi East 5.8 mph - N/A   Clear
4:15 AM 62.6 °F - 62.6 °F 100% 29.89 in 10.0 mi ESE 5.8 mph - N/A   Clear
4:35 AM 62.6 °F - 62.6 °F 100% 29.88 in 10.0 mi East 5.8 mph - N/A   Clear
4:55 AM 62.6 °F - 62.6 °F 100% 29.88 in 10.0 mi East 5.8 mph - N/A   Clear
5:15 AM 62.6 °F - 62.6 °F 100% 29.88 in 10.0 mi East 5.8 mph - N/A   Mostly Cloudy
5:35 AM 62.6 °F - 62.6 °F 100% 29.88 in 10.0 mi ESE 4.6 mph - N/A   Overcast
5:55 AM 62.6 °F - 62.6 °F 100% 29.87 in 10.0 mi ESE 6.9 mph - N/A   Overcast
6:15 AM 62.6 °F - 62.6 °F 100% 29.87 in 10.0 mi SE 6.9 mph - N/A   Overcast
6:35 AM 62.6 °F - 62.6 °F 100% 29.86 in 10.0 mi SE 8.1 mph - N/A   Overcast
6:55 AM 62.6 °F - 60.8 °F 94% 29.88 in 10.0 mi SE 5.8 mph - N/A   Overcast
7:15 AM 62.6 °F - 60.8 °F 94% 29.88 in 10.0 mi SE 5.8 mph - N/A   Overcast
7:35 AM 62.6 °F - 60.8 °F 94% 29.88 in 10.0 mi SSE 8.1 mph - N/A   Overcast
7:55 AM 62.6 °F - 60.8 °F 94% 29.87 in 10.0 mi SSE 6.9 mph - N/A   Overcast
8:15 AM 62.6 °F - 60.8 °F 94% 29.86 in 10.0 mi SSE 10.4 mph - N/A   Overcast
8:35 AM 64.4 °F - 59.0 °F 83% 29.88 in 10.0 mi South 9.2 mph - N/A   Overcast
8:55 AM 64.4 °F - 59.0 °F 83% 29.89 in 10.0 mi South 6.9 mph - N/A   Overcast
9:15 AM 64.4 °F - 59.0 °F 83% 29.89 in 10.0 mi South 8.1 mph - N/A   Overcast
9:35 AM 64.4 °F - 60.8 °F 88% 29.90 in 10.0 mi South 6.9 mph - N/A   Overcast
9:55 AM 64.4 °F - 59.0 °F 83% 29.90 in 10.0 mi SSE 8.1 mph - N/A   Overcast
10:15 AM 64.4 °F - 60.8 °F 88% 29.90 in 10.0 mi South 4.6 mph - N/A   Overcast
10:35 AM 64.4 °F - 60.8 °F 88% 29.90 in 10.0 mi SSW 6.9 mph - N/A   Overcast
10:55 AM 66.2 °F - 60.8 °F 83% 29.91 in 10.0 mi SW 3.5 mph - N/A   Overcast
11:15 AM 64.4 °F - 60.8 °F 88% 29.91 in 10.0 mi SW 3.5 mph - N/A   Overcast
11:35 AM 66.2 °F - 60.8 °F 83% 29.90 in 10.0 mi Calm Calm - N/A   Overcast
11:55 AM 66.2 °F - 60.8 °F 83% 29.90 in 10.0 mi Calm Calm - N/A   Overcast
12:15 PM 68.0 °F - 59.0 °F 73% 29.90 in 10.0 mi Calm Calm - N/A   Overcast
12:35 PM 69.8 °F - 59.0 °F 68% 29.89 in 10.0 mi NW 3.5 mph - N/A   Overcast
12:55 PM 71.6 °F - 59.0 °F 64% 29.88 in 10.0 mi NW 4.6 mph - N/A   Mostly Cloudy
1:15 PM 71.6 °F - 59.0 °F 64% 29.87 in 10.0 mi North 3.5 mph - N/A   Scattered Clouds
1:35 PM 73.4 °F - 59.0 °F 61% 29.86 in 10.0 mi East 3.5 mph - N/A   Scattered Clouds
1:55 PM 73.4 °F - 59.0 °F 61% 29.84 in 10.0 mi South 3.5 mph - N/A   Partly Cloudy
2:15 PM 75.2 °F - 57.2 °F 53% 29.82 in 10.0 mi WSW 5.8 mph - N/A   Clear
2:35 PM 77.0 °F - 57.2 °F 50% 29.81 in 10.0 mi Calm Calm - N/A   Clear
2:55 PM 78.8 °F - 55.4 °F 44% 29.79 in 10.0 mi North 4.6 mph - N/A   Clear
3:15 PM 78.8 °F - 53.6 °F 42% 29.78 in 10.0 mi East 4.6 mph - N/A   Clear
3:35 PM 80.6 °F 80.3 °F 53.6 °F 39% 29.76 in 10.0 mi ENE 4.6 mph - N/A   Clear
3:55 PM 82.4 °F - 50.0 °F 32% 29.75 in 10.0 mi NE 4.6 mph - N/A   Clear
4:15 PM 82.4 °F - 48.2 °F 30% 29.73 in 10.0 mi East 4.6 mph - N/A   Clear
4:35 PM 82.4 °F - 48.2 °F 30% 29.73 in 10.0 mi North 4.6 mph - N/A   Clear
4:55 PM 82.4 °F - 48.2 °F 30% 29.72 in 10.0 mi North 4.6 mph - N/A   Clear
5:15 PM 82.4 °F - 48.2 °F 30% 29.72 in 10.0 mi North 6.9 mph - N/A   Clear
5:35 PM 82.4 °F - 48.2 °F 30% 29.71 in 10.0 mi North 5.8 mph - N/A   Clear
5:55 PM 82.4 °F - 48.2 °F 30% 29.71 in 10.0 mi North 4.6 mph - N/A   Clear
6:15 PM 82.4 °F - 48.2 °F 30% 29.71 in 10.0 mi Calm Calm - N/A   Clear
6:35 PM 82.4 °F - 48.2 °F 30% 29.71 in 10.0 mi ENE 3.5 mph - N/A   Clear
6:55 PM 82.4 °F - 48.2 °F 30% 29.72 in 10.0 mi ESE 4.6 mph - N/A   Clear
7:15 PM 78.8 °F - 48.2 °F 34% 29.72 in 10.0 mi ENE 8.1 mph - N/A   Clear
7:35 PM 77.0 °F - 48.2 °F 36% 29.71 in 10.0 mi East 5.8 mph - N/A   Clear
7:55 PM 75.2 °F - 48.2 °F 38% 29.71 in 10.0 mi East 6.9 mph - N/A   Clear
8:15 PM 73.4 °F - 48.2 °F 41% 29.71 in 10.0 mi East 6.9 mph - N/A   Clear
8:35 PM 71.6 °F - 48.2 °F 43% 29.71 in 10.0 mi ENE 6.9 mph - N/A   Clear
8:55 PM 71.6 °F - 48.2 °F 43% 29.71 in 10.0 mi East 5.8 mph - N/A   Clear
9:15 PM 71.6 °F - 48.2 °F 43% 29.71 in 10.0 mi ENE 6.9 mph - N/A   Clear
9:35 PM 71.6 °F - 48.2 °F 43% 29.70 in 10.0 mi ENE 6.9 mph - N/A   Clear
9:55 PM 71.6 °F - 48.2 °F 43% 29.70 in 10.0 mi ENE 5.8 mph - N/A   Clear
10:15 PM 71.6 °F - 50.0 °F 46% 29.72 in 10.0 mi ENE 5.8 mph - N/A   Clear
10:35 PM 71.6 °F - 50.0 °F 46% 29.73 in 10.0 mi NE 6.9 mph - N/A   Clear
10:55 PM 69.8 °F - 51.8 °F 53% 29.75 in 10.0 mi NNE 8.1 mph - N/A   Clear
11:15 PM 69.8 °F - 51.8 °F 53% 29.76 in 10.0 mi NE 6.9 mph - N/A   Clear
11:35 PM 69.8 °F - 51.8 °F 53% 29.76 in 10.0 mi East 5.8 mph - N/A   Clear
11:55 PM 69.8 °F - 51.8 °F 53% 29.75 in 10.0 mi ENE 6.9 mph - N/A   Clear